Midway, WV (25878)

01:15 AM EDT die 01o November, anno 2014 (GMT -0400)
Southeast Beckley | Change Station
CLOSE
Current Station
Personal Weather Stations
Location: Beckley, WV
Elevation: 2365 ft
Nearby Weather Stations

Elev 2365 ft 37.76 °N, 81.16 °W | Updated 11 minutes ago

Aequaliter Nubila
Aequaliter Nubila
36.7 °F
Feels Like 37 °F
N
0.0
Ventus Variabilis Ventus from Magis Aquilo quam Eurus
Gusts 0.0 mph

Hodie
High -- | Low -- °F
--% Chance of Precip.
Yesterday
High -- | Low -- °F
Precip. -- in
7:50 AM 6:26 PM
Waxing Gibbous, 62% visible
Pressio 29.84 in
Visibilitas 9.0 milia passuum
Clouds Aequaliter Nubila 400 ft
Frigus Venti 37 °F
Frigus in quo Ros apparet 35 °F
Umor 95%
Rainfall 0.00 in
Snow Depth Not available.
UV 0 out of 12
Pollen .10 out of 12
Air Quality Not available.
Flu Activity Not available.
METAR KBKW 010451Z AUTO 34004KT 9SM -RA OVC004 03/01 A2980 RMK AO2 RAB24 SLP104 P0000 T00280011 400781006 TSNO

More Conditions Fewer Conditions

Pressio 29.84 in
Visibilitas 9.0 milia passuum
Clouds Aequaliter Nubila 400 ft
Frigus Venti 37 °F
Frigus in quo Ros apparet 35 °F
Umor 95%
Rainfall 0.00 in
Snow Depth Not available.
UV 0 out of 12
Pollen .10 out of 12
Air Quality Not available.
Flu Activity Not available.
METAR KBKW 010451Z AUTO 34004KT 9SM -RA OVC004 03/01 A2980 RMK AO2 RAB24 SLP104 P0000 T00280011 400781006 TSNO

More Conditions Fewer Conditions

10-Day Weather Forecast

Almanac

Astronomy

Nov. 01, 2014 Rise Set
Actual Time
Civil Twilight
Nautical Twilight
Astronomical Twilight
Moon
Length Of Visible Light
Length of Day
Tomorrow will be .
, % of the Moon is Illuminated

Today's Extremes

State Highs State Lows

Community

WunderPhotos

Upload Photos

1,766,857 photos uploaded!

WunderBlogs® & News

Nearby

Air Quality

  Air Quality AQ Index Pollutant
Not available.

Snow Depth

Station Depth Elevation

Earthquake Activity

City Distance Mag. Time & Date
Minimum magnitude displayed is 2.5.

Coastal Water Temperatures

Locus Calor

Nearby Weather Stations